Time;durP1;ratioP1;P1;durP2;ratioP2;P2;SDS_P1;SDS_P2;PMS_P1;PMS_P2;Temp;Humidity;BMP_temperature;BMP_pressure;BME280_temperature;BME280_humidity;BME280_pressure;Samples;Min_cycle;Max_cycle;Signal;HPM_P1;HPM_P2
2023/09/07 00:02:10;;;;;;;4.63;2.70;;;;;;;;;;5010573;28;20022;-78
2023/09/07 00:04:36;;;;;;;5.13;2.97;;;;;;;;;;5009740;28;20111;-78
2023/09/07 00:07:03;;;;;;;4.75;2.88;;;;;;;;;;5009875;28;20036;-78
2023/09/07 00:09:29;;;;;;;3.33;2.45;;;;;;;;;;5009740;28;20553;-78
2023/09/07 00:11:55;;;;;;;4.45;2.78;;;;;;;;;;5009676;28;20049;-79
2023/09/07 00:14:21;;;;;;;3.17;2.05;;;;;;;;;;5009615;28;20111;-78
2023/09/07 00:16:46;;;;;;;3.90;2.40;;;18.60;97.50;;;;;;5009884;28;20465;-78
2023/09/07 00:19:12;;;;;;;9.70;3.15;;;;;;;;;;5009639;28;20029;-78
2023/09/07 00:21:38;;;;;;;3.25;2.53;;;18.60;95.40;;;;;;5009465;28;20030;-78
2023/09/07 00:24:05;;;;;;;5.97;2.17;;;;;;;;;;5001510;28;20155;-78
2023/09/07 00:26:31;;;;;;;11.13;2.90;;;18.80;98.00;;;;;;5009290;28;20025;-78
2023/09/07 00:28:57;;;;;;;4.22;2.72;;;;;;;;;;5009608;28;20805;-78
2023/09/07 00:31:23;;;;;;;6.15;3.45;;;;;;;;;;5009843;28;20026;-78
2023/09/07 00:33:49;;;;;;;4.03;2.60;;;;;;;;;;5009153;28;20033;-78
2023/09/07 00:36:15;;;;;;;9.52;2.78;;;;;;;;;;5010022;28;20037;-78
2023/09/07 00:38:41;;;;;;;3.85;2.30;;;;;;;;;;5009600;28;20449;-78
2023/09/07 00:41:07;;;;;;;9.13;2.13;;;;;;;;;;5007526;28;20460;-78
2023/09/07 00:43:33;;;;;;;3.80;2.85;;;;;;;;;;5009907;28;20049;-78
2023/09/07 00:45:59;;;;;;;3.05;2.15;;;;;;;;;;5020102;28;20702;-78
2023/09/07 00:48:25;;;;;;;5.53;2.88;;;;;;;;;;5009055;28;20117;-78
2023/09/07 00:50:51;;;;;;;4.55;2.80;;;;;;;;;;5008935;28;20026;-78
2023/09/07 00:53:17;;;;;;;4.57;2.50;;;;;;;;;;5008487;28;20412;-78
2023/09/07 00:55:44;;;;;;;4.97;3.38;;;18.50;92.90;;;;;;5008680;28;20038;-78
2023/09/07 00:58:12;;;;;;;3.78;2.55;;;18.70;98.10;;;;;;5009100;28;20025;-79
2023/09/07 01:00:38;;;;;;;5.72;3.05;;;;;;;;;;5009200;28;20084;-78
2023/09/07 01:03:04;;;;;;;5.45;2.88;;;;;;;;;;5008858;28;20018;-78
2023/09/07 01:06:00;;;;;;;9.32;2.85;;;18.60;92.50;;;;;;5009203;28;20487;-78
2023/09/07 01:08:32;;;;;;;9.20;2.88;;;18.40;92.90;;;;;;5008913;28;20040;-78
2023/09/07 01:10:58;;;;;;;6.57;2.88;;;;;;;;;;4996205;28;20112;-78
2023/09/07 01:13:24;;;;;;;5.32;2.80;;;;;;;;;;5008936;28;20456;-78
2023/09/07 01:15:50;;;;;;;3.10;2.13;;;;;;;;;;5007380;28;20034;-78
2023/09/07 01:18:17;;;;;;;8.02;3.13;;;;;;;;;;5008235;28;20074;-78
2023/09/07 01:20:44;;;;;;;4.10;2.50;;;;;;;;;;5014742;28;20120;-78
2023/09/07 01:23:11;;;;;;;7.22;3.60;;;18.40;93.80;;;;;;5008974;28;20101;-78
2023/09/07 01:25:38;;;;;;;5.72;2.70;;;;;;;;;;5009018;28;20030;-78
2023/09/07 01:28:04;;;;;;;4.65;2.53;;;18.20;97.80;;;;;;4996448;28;20022;-78
2023/09/07 01:30:29;;;;;;;4.13;3.22;;;18.20;96.50;;;;;;5008693;28;20572;-78
2023/09/07 01:32:55;;;;;;;3.70;2.35;;;;;;;;;;4996446;28;20057;-78
2023/09/07 01:35:22;;;;;;;7.13;3.30;;;;;;;;;;5008384;28;20481;-78
2023/09/07 01:37:49;;;;;;;5.30;2.90;;;;;;;;;;5008402;28;20440;-78
2023/09/07 01:40:15;;;;;;;4.90;2.75;;;;;;;;;;5008594;28;20030;-78
2023/09/07 01:42:41;;;;;;;5.93;3.15;;;;;;;;;;5008583;28;20077;-78
2023/09/07 01:45:07;;;;;;;5.43;3.22;;;;;;;;;;5008412;28;20034;-78
2023/09/07 01:47:33;;;;;;;7.13;3.33;;;;;;;;;;5008937;28;20034;-78
2023/09/07 01:49:59;;;;;;;5.32;2.92;;;;;;;;;;5006129;28;20109;-78
2023/09/07 01:52:25;;;;;;;3.33;2.35;;;;;;;;;;5007373;28;20453;-78
2023/09/07 01:54:51;;;;;;;5.05;2.65;;;;;;;;;;5009048;28;20026;-78
2023/09/07 01:57:17;;;;;;;4.70;2.80;;;;;;;;;;5008803;28;20097;-78
2023/09/07 01:59:43;;;;;;;6.45;3.17;;;;;;;;;;5008644;28;20034;-78
2023/09/07 02:02:09;;;;;;;3.78;3.03;;;;;;;;;;5005113;28;20055;-78
2023/09/07 02:04:35;;;;;;;4.53;2.72;;;;;;;;;;5001484;28;20029;-79
2023/09/07 02:07:01;;;;;;;4.97;3.35;;;;;;;;;;5011010;28;20079;-78
2023/09/07 02:09:27;;;;;;;8.68;2.78;;;;;;;;;;5008348;28;20033;-78
2023/09/07 02:11:53;;;;;;;4.30;2.60;;;;;;;;;;5007889;28;20033;-78
2023/09/07 02:14:19;;;;;;;4.60;2.88;;;;;;;;;;5008173;28;20103;-78
2023/09/07 02:16:45;;;;;;;5.75;3.33;;;;;;;;;;5008161;28;20061;-78
2023/09/07 02:19:11;;;;;;;4.78;3.45;;;;;;;;;;5008619;28;20037;-78
2023/09/07 02:21:37;;;;;;;4.90;3.13;;;;;;;;;;5007931;28;20477;-79
2023/09/07 02:24:03;;;;;;;3.88;2.80;;;;;;;;;;5008948;28;20091;-79
2023/09/07 02:26:29;;;;;;;5.38;3.38;;;;;;;;;;5008152;28;20030;-78
2023/09/07 02:28:55;;;;;;;8.32;3.35;;;;;;;;;;5008655;28;20034;-78
2023/09/07 02:31:21;;;;;;;3.97;2.75;;;;;;;;;;5007991;28;20105;-77
2023/09/07 02:33:47;;;;;;;3.72;2.75;;;;;;;;;;5008207;28;20105;-78
2023/09/07 02:36:13;;;;;;;10.50;3.70;;;;;;;;;;4995312;28;20038;-78
2023/09/07 02:38:39;;;;;;;5.93;3.13;;;;;;;;;;5007998;28;20037;-78
2023/09/07 02:41:05;;;;;;;6.40;3.30;;;;;;;;;;4995186;28;20544;-78
2023/09/07 02:43:31;;;;;;;9.07;2.75;;;;;;;;;;5007439;28;20153;-78
2023/09/07 02:45:57;;;;;;;4.53;2.88;;;;;;;;;;5007670;28;20030;-78
2023/09/07 02:48:23;;;;;;;5.32;3.25;;;;;;;;;;5011279;28;20036;-78
2023/09/07 02:50:50;;;;;;;4.32;3.05;;;;;;;;;;5010937;28;20037;-78
2023/09/07 02:53:16;;;;;;;7.30;3.40;;;;;;;;;;5011642;28;20030;-78
2023/09/07 02:55:42;;;;;;;3.58;2.72;;;;;;;;;;4998783;28;20385;-78
2023/09/07 02:58:08;;;;;;;4.57;3.10;;;;;;;;;;5009919;28;20030;-78
2023/09/07 03:00:34;;;;;;;4.70;2.38;;;;;;;;;;5011064;28;20558;-77
2023/09/07 03:03:00;;;;;;;6.75;2.85;;;;;;;;;;5011115;28;20034;-78
2023/09/07 03:05:29;;;;;;;5.45;3.50;;;17.10;99.90;;;;;;5011645;28;20503;-78
2023/09/07 03:07:55;;;;;;;4.63;3.15;;;;;;;;;;5009709;28;20049;-78
2023/09/07 03:10:20;;;;;;;4.80;2.78;;;17.50;99.90;;;;;;5011437;28;20025;-78
2023/09/07 03:12:46;;;;;;;7.65;3.35;;;;;;;;;;5011020;28;20037;-78
2023/09/07 03:15:12;;;;;;;6.55;3.03;;;;;;;;;;5011624;28;20533;-78
2023/09/07 03:17:38;;;;;;;8.50;2.90;;;;;;;;;;5011065;28;20165;-78
2023/09/07 03:20:14;;;;;;;7.97;3.13;;;;;;;;;;5016962;28;20581;-78
2023/09/07 03:22:44;;;;;;;5.45;3.53;;;17.30;99.90;;;;;;5010904;28;20038;-78
2023/09/07 03:25:10;;;;;;;4.95;2.65;;;17.30;98.60;;;;;;5010845;28;20674;-78
2023/09/07 03:27:37;;;;;;;6.67;3.10;;;17.30;98.30;;;;;;5010502;28;20052;-78
2023/09/07 03:30:04;;;;;;;11.75;3.67;;;17.20;98.10;;;;;;5011160;28;20022;-78
2023/09/07 03:32:33;;;;;;;5.40;3.30;;;;;;;;;;5010400;28;20052;-78
2023/09/07 03:35:06;;;;;;;3.72;2.60;;;17.10;99.80;;;;;;5010804;28;20025;-78
2023/09/07 03:37:33;;;;;;;4.13;2.67;;;;;;;;;;5010910;28;20039;-78
2023/09/07 03:39:59;;;;;;;4.95;3.40;;;;;;;;;;5010608;28;20026;-78
2023/09/07 03:42:25;;;;;;;4.13;2.75;;;;;;;;;;5009964;28;20030;-78
2023/09/07 03:44:51;;;;;;;6.15;3.60;;;17.30;99.90;;;;;;5010962;28;20563;-78
2023/09/07 03:47:17;;;;;;;5.47;3.22;;;;;;;;;;5010312;28;20022;-78
2023/09/07 03:49:43;;;;;;;6.38;3.17;;;;;;;;;;5010456;28;20038;-78
2023/09/07 03:52:09;;;;;;;4.20;2.63;;;17.00;98.40;;;;;;5009801;28;20053;-78
2023/09/07 03:54:35;;;;;;;7.82;3.72;;;16.80;99.90;;;;;;5010342;28;20524;-78
2023/09/07 03:57:01;;;;;;;4.53;2.25;;;;;;;;;;5009960;28;20109;-78
2023/09/07 03:59:27;;;;;;;6.82;3.42;;;16.90;99.90;;;;;;5008498;28;20034;-78
2023/09/07 04:01:54;;;;;;;12.13;2.93;;;;;;;;;;5009969;28;20022;-78
2023/09/07 04:04:20;;;;;;;4.53;3.13;;;;;;;;;;5012902;28;20022;-78
2023/09/07 04:06:49;;;;;;;5.15;2.88;;;17.00;99.90;;;;;;5010111;28;20026;-78
2023/09/07 04:09:15;;;;;;;5.38;2.65;;;;;;;;;;5006897;28;20053;-79
2023/09/07 04:11:41;;;;;;;5.88;2.70;;;;;;;;;;5009619;28;20042;-78
2023/09/07 04:14:07;;;;;;;4.68;3.60;;;;;;;;;;5009917;28;20025;-78
2023/09/07 04:16:33;;;;;;;7.47;2.88;;;;;;;;;;5009362;28;20053;-78
2023/09/07 04:18:59;;;;;;;9.65;3.10;;;;;;;;;;5009899;28;20403;-78
2023/09/07 04:21:25;;;;;;;5.03;2.92;;;;;;;;;;5009500;28;20030;-78
2023/09/07 04:23:51;;;;;;;5.35;2.70;;;;;;;;;;5010129;28;20022;-78
2023/09/07 04:26:17;;;;;;;6.53;3.55;;;;;;;;;;5009334;28;20038;-78
2023/09/07 04:28:43;;;;;;;4.55;3.33;;;;;;;;;;5009997;28;20061;-78
2023/09/07 04:31:09;;;;;;;5.10;3.08;;;;;;;;;;5009560;28;20100;-78
2023/09/07 04:33:35;;;;;;;5.07;2.47;;;;;;;;;;5009725;28;20032;-78
2023/09/07 04:36:08;;;;;;;5.80;2.88;;;16.50;99.90;;;;;;5009780;28;20164;-78
2023/09/07 04:38:34;;;;;;;6.63;3.08;;;;;;;;;;5009473;28;20025;-77
2023/09/07 04:41:10;;;;;;;7.10;3.63;;;16.80;99.90;;;;;;5009135;28;20140;-78
2023/09/07 04:43:37;;;;;;;4.97;3.28;;;16.60;99.50;;;;;;5009352;28;20021;-78
2023/09/07 04:46:03;;;;;;;5.15;2.90;;;;;;;;;;5009567;28;20025;-77
2023/09/07 04:48:29;;;;;;;12.10;4.60;;;;;;;;;;5009008;28;20147;-77
2023/09/07 04:51:13;;;;;;;5.95;3.00;;;16.50;99.90;;;;;;5009003;28;20063;-78
2023/09/07 04:53:39;;;;;;;4.40;2.67;;;;;;;;;;5009056;28;20038;-78
2023/09/07 04:56:06;;;;;;;5.57;3.72;;;16.40;99.90;;;;;;5009629;28;20148;-77
2023/09/07 04:58:32;;;;;;;4.57;3.28;;;16.20;99.90;;;;;;5009290;28;20026;-78
2023/09/07 05:01:05;;;;;;;4.90;3.13;;;16.60;99.90;;;;;;5004382;28;20044;-78
2023/09/07 05:03:31;;;;;;;7.28;3.67;;;;;;;;;;5005157;28;20509;-77
2023/09/07 05:05:57;;;;;;;5.38;3.25;;;;;;;;;;5001614;28;20034;-78
2023/09/07 05:08:27;;;;;;;6.90;4.03;;;;;;;;;;5008377;28;20784;-78
2023/09/07 05:10:57;;;;;;;5.60;3.88;;;16.30;99.90;;;;;;4999643;28;20034;-78
2023/09/07 05:13:23;;;;;;;6.05;3.60;;;;;;;;;;5012793;28;20048;-77
2023/09/07 05:15:53;;;;;;;8.63;3.45;;;16.50;99.90;;;;;;5007080;28;20128;-78
2023/09/07 05:18:19;;;;;;;4.00;2.78;;;;;;;;;;5008714;28;20029;-77
2023/09/07 05:20:45;;;;;;;5.53;3.20;;;;;;;;;;5006106;28;20026;-77
2023/09/07 05:23:15;;;;;;;7.85;3.40;;;16.60;99.90;;;;;;5007977;28;20021;-78
2023/09/07 05:25:50;;;;;;;6.25;3.33;;;16.70;99.90;;;;;;5006520;28;20044;-78
2023/09/07 05:28:16;;;;;;;7.32;3.60;;;16.70;99.60;;;;;;5006425;28;20399;-78
2023/09/07 05:30:43;;;;;;;4.55;3.65;;;;;;;;;;5007599;28;20525;-78
2023/09/07 05:33:13;;;;;;;6.38;3.67;;;16.70;99.40;;;;;;5007967;28;20022;-80
2023/09/07 05:35:39;;;;;;;6.35;3.20;;;;;;;;;;5004758;28;20042;-80
2023/09/07 05:38:06;;;;;;;5.90;3.00;;;16.70;99.90;;;;;;4991557;28;20110;-80
2023/09/07 05:40:42;;;;;;;3.58;3.17;;;16.30;99.90;;;;;;5006561;28;20571;-80
2023/09/07 05:43:08;;;;;;;12.73;3.60;;;16.80;99.30;;;;;;5005978;28;20035;-80
2023/09/07 05:45:36;;;;;;;5.00;3.42;;;;;;;;;;5007210;28;20029;-80
2023/09/07 05:48:03;;;;;;;3.80;3.10;;;;;;;;;;5004800;28;20042;-79
2023/09/07 05:50:29;;;;;;;5.87;3.70;;;;;;;;;;5006719;28;20052;-80
2023/09/07 05:52:55;;;;;;;4.30;3.17;;;;;;;;;;5007722;28;20265;-81
2023/09/07 05:55:21;;;;;;;6.88;3.25;;;;;;;;;;5018103;28;20613;-82
2023/09/07 05:57:47;;;;;;;6.18;3.15;;;;;;;;;;5007829;28;20034;-78
2023/09/07 06:00:15;;;;;;;5.38;3.10;;;18.70;99.90;;;;;;5004415;28;20022;-78
2023/09/07 06:02:41;;;;;;;4.35;3.08;;;;;;;;;;5006049;28;20077;-77
2023/09/07 06:05:07;;;;;;;8.90;3.08;;;21.60;89.60;;;;;;5005615;28;20455;-78
2023/09/07 06:07:33;;;;;;;6.53;3.90;;;;;;;;;;5007369;28;20065;-78
2023/09/07 06:09:59;;;;;;;5.38;3.83;;;;;;;;;;5018949;28;20866;-78
2023/09/07 06:12:25;;;;;;;6.80;3.85;;;;;;;;;;5006696;28;20029;-77
2023/09/07 06:14:51;;;;;;;6.18;4.28;;;;;;;;;;5005364;28;20041;-76
2023/09/07 06:17:17;;;;;;;6.22;2.90;;;;;;;;;;5006067;28;20054;-76
2023/09/07 06:19:43;;;;;;;5.88;3.38;;;;;;;;;;5006390;28;20053;-76
2023/09/07 06:22:08;;;;;;;7.30;3.05;;;26.00;62.60;;;;;;5007297;28;20025;-75
2023/09/07 06:24:34;;;;;;;6.15;3.45;;;26.50;54.70;;;;;;5010999;28;20041;-76
2023/09/07 06:27:00;;;;;;;6.78;3.50;;;;;;;;;;5004940;28;20483;-81
2023/09/07 06:29:26;;;;;;;4.78;3.42;;;;;;;;;;5004825;28;20097;-81
2023/09/07 06:31:52;;;;;;;7.35;3.30;;;;;;;;;;5011329;28;20697;-83
2023/09/07 06:34:18;;;;;;;6.32;4.47;;;33.20;51.60;;;;;;5011341;28;20038;-85
2023/09/07 06:36:43;;;;;;;5.97;2.93;;;35.20;44.70;;;;;;5011331;28;20030;-86
2023/09/07 06:39:09;;;;;;;8.40;3.97;;;;;;;;;;5010294;28;20057;-84
2023/09/07 06:41:35;;;;;;;3.83;3.10;;;;;;;;;;5009796;28;20210;-86
2023/09/07 06:44:02;;;;;;;6.50;3.72;;;;;;;;;;5009317;28;20029;-82
2023/09/07 06:46:27;;;;;;;5.18;2.92;;;;;;;;;;5001835;28;20040;-83
2023/09/07 06:48:53;;;;;;;5.50;4.07;;;40.80;34.00;;;;;;5010982;28;20022;-79
2023/09/07 06:51:19;;;;;;;5.13;3.53;;;;;;;;;;5007903;28;20738;-76
2023/09/07 06:53:45;;;;;;;4.25;3.70;;;;;;;;;;5010257;28;20033;-76
2023/09/07 06:56:11;;;;;;;8.32;3.28;;;;;;;;;;5015233;28;20246;-76
2023/09/07 06:58:37;;;;;;;4.85;3.28;;;;;;;;;;5012078;28;20162;-76
2023/09/07 07:01:04;;;;;;;;;;;44.20;29.30;;;;;;5009308;28;20057;-76
2023/09/07 07:03:30;;;;;;;4.70;2.65;;;45.90;28.60;;;;;;5011619;28;19909;-77
2023/09/07 07:05:56;;;;;;;5.72;2.92;;;45.70;27.00;;;;;;5011236;28;20036;-77
2023/09/07 07:08:22;;;;;;;3.90;3.00;;;;;;;;;;5005143;28;20037;-76
2023/09/07 07:10:48;;;;;;;4.72;3.40;;;47.70;31.10;;;;;;5013878;28;20061;-77
2023/09/07 07:13:15;;;;;;;4.15;3.58;;;;;;;;;;5012307;28;20076;-76
2023/09/07 07:15:41;;;;;;;3.45;2.90;;;;;;;;;;5009573;28;20038;-76
2023/09/07 07:18:08;;;;;;;11.63;3.38;;;;;;;;;;5002500;28;20116;-77
2023/09/07 07:20:43;;;;;;;5.90;2.92;;;51.00;25.50;;;;;;5008501;28;20030;-76
2023/09/07 07:23:09;;;;;;;5.05;2.90;;;;;;;;;;5010843;28;20017;-77
2023/09/07 07:25:36;;;;;;;3.00;2.42;;;52.50;28.80;;;;;;5011662;28;20062;-77
2023/09/07 07:28:05;;;;;;;11.05;2.90;;;;;;;;;;5000466;28;20026;-77
2023/09/07 07:30:36;;;;;;;8.25;2.70;;;52.90;25.00;;;;;;5006284;28;20022;-82
2023/09/07 07:33:03;;;;;;;3.67;2.75;;;;;;;;;;5006107;28;20113;-81
2023/09/07 07:35:29;;;;;;;11.63;2.83;;;;;;;;;;5016531;28;20141;-80
2023/09/07 07:37:54;;;;;;;3.10;2.67;;;54.90;25.20;;;;;;4997209;28;20871;-81
2023/09/07 07:40:20;;;;;;;4.78;2.65;;;;;;;;;;5007417;28;20026;-81
2023/09/07 07:42:47;;;;;;;4.15;2.53;;;55.40;24.00;;;;;;5010492;28;20461;-81
2023/09/07 07:45:14;;;;;;;4.90;2.63;;;;;;;;;;5008207;28;20501;-79
2023/09/07 07:47:42;;;;;;;6.95;2.97;;;56.30;22.70;;;;;;5002698;28;20045;-79
2023/09/07 07:50:08;;;;;;;4.25;2.53;;;56.80;26.40;;;;;;5004853;28;20022;-77
2023/09/07 07:52:34;;;;;;;3.88;2.58;;;;;;;;;;5007188;28;20091;-78
2023/09/07 07:55:00;;;;;;;4.85;2.40;;;;;;;;;;5006447;28;20030;-77
2023/09/07 07:57:26;;;;;;;2.75;2.17;;;;;;;;;;5005104;28;20511;-78
2023/09/07 07:59:52;;;;;;;7.78;2.20;;;;;;;;;;5005780;28;20041;-78
2023/09/07 08:02:18;;;;;;;2.33;2.17;;;58.30;26.10;;;;;;5009528;28;20219;-79
2023/09/07 08:04:45;;;;;;;3.38;2.22;;;;;;;;;;5004963;28;20129;-80
2023/09/07 08:07:11;;;;;;;3.97;2.40;;;;;;;;;;5006739;28;20026;-80
2023/09/07 08:09:38;;;;;;;4.85;2.50;;;;;;;;;;4997459;28;20557;-79
2023/09/07 08:12:05;;;;;;;3.25;2.33;;;59.30;21.20;;;;;;5005475;28;20113;-79
2023/09/07 08:14:31;;;;;;;4.25;2.55;;;59.70;25.40;;;;;;5006227;28;20034;-79
2023/09/07 08:16:57;;;;;;;2.53;2.10;;;60.30;21.10;;;;;;5006186;28;20843;-77
2023/09/07 08:19:24;;;;;;;3.25;2.13;;;60.70;20.80;;;;;;4998162;28;20026;-81
2023/09/07 08:21:50;;;;;;;6.57;2.75;;;;;;;;;;5005164;28;20487;-81
2023/09/07 08:24:16;;;;;;;2.97;2.50;;;;;;;;;;5006288;28;20105;-80
2023/09/07 08:26:42;;;;;;;3.35;2.40;;;;;;;;;;5005901;28;20034;-81
2023/09/07 08:29:08;;;;;;;2.80;2.60;;;61.50;25.00;;;;;;4998752;28;20048;-80
2023/09/07 08:31:40;;;;;;;3.63;3.03;;;60.30;20.10;;;;;;5006986;28;20551;-80
2023/09/07 08:34:09;;;;;;;7.38;2.90;;;60.20;20.00;;;;;;5005203;28;20056;-81
2023/09/07 08:36:35;;;;;;;3.17;2.95;;;;;;;;;;5006507;28;20041;-81
2023/09/07 08:39:05;;;;;;;3.90;3.40;;;59.80;20.40;;;;;;5001446;28;20029;-81
2023/09/07 08:41:32;;;;;;;3.05;2.75;;;59.90;20.10;;;;;;5015880;28;20073;-80
2023/09/07 08:44:00;;;;;;;8.68;4.15;;;60.50;20.50;;;;;;5004842;28;20568;-80
2023/09/07 08:46:27;;;;;;;5.53;2.92;;;60.50;20.10;;;;;;5005928;28;20517;-80
2023/09/07 08:48:55;;;;;;;2.97;2.78;;;;;;;;;;4999742;28;20380;-80
2023/09/07 08:51:22;;;;;;;4.55;2.80;;;;;;;;;;5004787;28;20096;-80
2023/09/07 08:53:49;;;;;;;6.47;3.00;;;;;;;;;;5002391;28;20034;-81
2023/09/07 08:56:15;;;;;;;4.80;2.58;;;;;;;;;;5007976;28;20052;-79
2023/09/07 08:58:41;;;;;;;7.28;2.90;;;;;;;;;;4998735;28;20072;-79
2023/09/07 09:01:08;;;;;;;6.22;2.95;;;;;;;;;;5004229;28;20121;-79
2023/09/07 09:03:34;;;;;;;5.13;2.78;;;;;;;;;;5005763;28;20057;-79
2023/09/07 09:06:00;;;;;;;3.65;2.78;;;;;;;;;;5001444;28;20430;-79
2023/09/07 09:08:26;;;;;;;6.43;2.95;;;;;;;;;;4999860;28;20029;-79
2023/09/07 09:11:03;;;;;;;3.00;2.70;;;61.20;19.60;;;;;;5004130;28;20026;-80
2023/09/07 09:13:32;;;;;;;4.63;3.15;;;61.30;19.40;;;;;;5005223;28;20038;-78
2023/09/07 09:16:01;;;;;;;3.40;3.00;;;61.00;19.50;;;;;;5004566;28;20046;-79
2023/09/07 09:18:28;;;;;;;3.45;2.83;;;60.30;19.60;;;;;;4998561;28;20156;-81
2023/09/07 09:20:58;;;;;;;8.65;3.03;;;61.00;19.70;;;;;;5005343;28;20117;-76
2023/09/07 09:23:24;;;;;;;3.17;2.88;;;;;;;;;;5013016;28;20026;-78
2023/09/07 09:25:51;;;;;;;3.33;3.03;;;;;;;;;;5003742;28;20026;-78
2023/09/07 09:28:17;;;;;;;4.03;2.45;;;;;;;;;;4998666;28;20032;-79
2023/09/07 09:30:43;;;;;;;4.43;2.58;;;;;;;;;;5014624;28;20018;-78
2023/09/07 09:33:10;;;;;;;2.90;2.70;;;61.40;19.50;;;;;;5005960;28;20038;-79
2023/09/07 09:35:36;;;;;;;3.95;2.72;;;;;;;;;;5004075;28;20034;-80
2023/09/07 09:38:05;;;;;;;3.83;3.03;;;;;;;;;;4999289;28;20041;-79
2023/09/07 09:40:34;;;;;;;4.70;2.53;;;61.40;19.60;;;;;;5004082;28;20032;-78
2023/09/07 09:43:02;;;;;;;3.72;2.75;;;61.90;19.60;;;;;;5005167;28;20030;-78
2023/09/07 09:45:28;;;;;;;3.42;2.78;;;;;;;;;;5005114;28;20057;-78
2023/09/07 09:47:58;;;;;;;6.80;3.00;;;62.70;19.50;;;;;;4998740;28;20077;-79
2023/09/07 09:50:24;;;;;;;4.45;2.42;;;;;;;;;;5004448;28;20015;-79
2023/09/07 09:52:53;;;;;;;6.25;2.70;;;62.90;19.30;;;;;;5004649;28;20038;-78
2023/09/07 09:55:19;;;;;;;3.33;2.50;;;;;;;;;;5005009;28;20569;-79
2023/09/07 09:57:45;;;;;;;6.97;2.80;;;;;;;;;;5002916;28;20033;-79
2023/09/07 10:00:19;;;;;;;2.63;2.42;;;62.30;19.40;;;;;;5010885;28;20646;-79
2023/09/07 10:02:54;;;;;;;4.45;2.63;;;62.50;19.60;;;;;;5009757;28;20044;-79
2023/09/07 10:05:20;;;;;;;6.82;3.20;;;;;;;;;;5008256;28;20038;-79
2023/09/07 10:07:49;;;;;;;4.70;2.88;;;62.90;19.30;;;;;;5010646;28;20111;-80
2023/09/07 10:10:18;;;;;;;5.00;2.78;;;63.10;19.40;;;;;;5009263;28;20034;-79
2023/09/07 10:12:44;;;;;;;3.83;2.60;;;63.10;19.30;;;;;;5009011;28;20580;-79
2023/09/07 10:15:39;;;;;;;5.53;2.80;;;62.40;19.20;;;;;;5008022;28;20527;-80
2023/09/07 10:18:16;;;;;;;5.70;3.03;;;62.40;19.40;;;;;;4995115;28;20053;-78
2023/09/07 10:20:58;;;;;;;4.57;3.40;;;62.20;20.30;;;;;;5014031;28;20034;-79
2023/09/07 10:23:44;;;;;;;6.15;2.75;;;62.30;23.80;;;;;;5026965;28;20085;-79
2023/09/07 10:26:15;;;;;;;3.95;2.63;;;63.00;23.80;;;;;;5011117;28;20030;-79
2023/09/07 10:28:42;;;;;;;3.17;2.88;;;63.10;19.50;;;;;;5000792;28;20030;-79
2023/09/07 10:31:19;;;;;;;2.58;2.33;;;63.30;24.50;;;;;;5007059;28;20030;-79
2023/09/07 10:33:45;;;;;;;3.60;3.30;;;;;;;;;;5008522;28;20022;-79
2023/09/07 10:36:25;;;;;;;3.15;2.85;;;63.70;19.40;;;;;;5012341;28;20038;-80
2023/09/07 10:38:54;;;;;;;5.30;2.95;;;;;;;;;;4999776;28;20125;-80
2023/09/07 10:41:20;;;;;;;2.78;2.58;;;63.70;24.70;;;;;;5008104;28;20032;-80
2023/09/07 10:43:54;;;;;;;4.18;2.72;;;63.90;19.50;;;;;;5008696;28;20030;-80
2023/09/07 10:46:21;;;;;;;7.95;2.97;;;64.20;20.40;;;;;;5007592;28;20026;-80
2023/09/07 10:48:51;;;;;;;3.10;2.80;;;63.00;19.30;;;;;;5001190;28;20033;-80
2023/09/07 10:51:20;;;;;;;7.75;2.80;;;63.10;19.50;;;;;;5007986;28;20030;-80
2023/09/07 10:53:46;;;;;;;3.13;2.80;;;;;;;;;;5006913;28;20618;-79
2023/09/07 10:56:13;;;;;;;3.30;2.65;;;;;;;;;;5006961;28;20065;-79
2023/09/07 10:58:40;;;;;;;3.13;2.90;;;;;;;;;;5000723;28;20025;-79
2023/09/07 11:01:07;;;;;;;2.95;2.70;;;;;;;;;;5007811;28;20506;-79
2023/09/07 11:03:33;;;;;;;3.03;2.70;;;62.80;24.60;;;;;;5006932;28;20026;-79
2023/09/07 11:06:04;;;;;;;3.97;2.63;;;63.30;19.50;;;;;;5006047;28;20518;-79
2023/09/07 11:08:30;;;;;;;4.95;2.53;;;63.20;19.50;;;;;;5000548;28;20057;-80
2023/09/07 11:10:56;;;;;;;3.40;2.70;;;;;;;;;;5006064;28;20026;-79
2023/09/07 11:13:26;;;;;;;3.03;2.45;;;62.10;19.50;;;;;;5005795;28;20109;-80
2023/09/07 11:15:56;;;;;;;5.07;2.20;;;61.40;19.60;;;;;;5002672;28;20048;-79
2023/09/07 11:18:23;;;;;;;5.05;2.33;;;60.50;19.70;;;;;;5000614;28;20088;-79
2023/09/07 11:20:50;;;;;;;4.25;2.05;;;57.50;19.70;;;;;;5007496;28;20041;-79
2023/09/07 11:23:18;;;;;;;6.95;2.30;;;53.70;26.00;;;;;;5006816;28;20061;-79
2023/09/07 11:25:44;;;;;;;4.82;1.80;;;;;;;;;;5007138;28;20387;-79
2023/09/07 11:28:11;;;;;;;2.03;1.63;;;;;;;;;;5000642;28;20494;-78
2023/09/07 11:30:37;;;;;;;2.35;1.73;;;;;;;;;;5006949;28;20030;-77
2023/09/07 11:33:07;;;;;;;4.32;2.10;;;43.40;25.30;;;;;;5005805;28;20177;-77
2023/09/07 11:35:34;;;;;;;4.13;1.75;;;42.20;26.10;;;;;;5008126;28;20507;-76
2023/09/07 11:38:04;;;;;;;4.57;2.28;;;41.30;26.70;;;;;;4999383;28;20030;-77
2023/09/07 11:40:33;;;;;;;12.38;1.98;;;;;;;;;;5007551;28;20065;-76
2023/09/07 11:42:59;;;;;;;7.35;2.42;;;;;;;;;;5004924;28;20026;-77
2023/09/07 11:45:25;;;;;;;;;;;39.60;28.30;;;;;;5007426;28;20384;-76
2023/09/07 11:47:51;;;;;;;3.10;2.25;;;;;;;;;;5001808;28;19913;-77
2023/09/07 11:50:18;;;;;;;6.85;1.98;;;;;;;;;;5005697;28;20037;-76
2023/09/07 11:52:44;;;;;;;1.77;1.33;;;;;;;;;;5007443;28;20037;-81
2023/09/07 11:55:10;;;;;;;5.10;2.67;;;;;;;;;;5008045;28;20590;-83
2023/09/07 11:57:37;;;;;;;2.95;2.10;;;38.50;29.00;;;;;;5005594;28;20224;-87
2023/09/07 12:00:05;;;;;;;;;;;38.50;29.70;;;;;;5009585;28;20057;-85
2023/09/07 12:02:31;;;;;;;3.78;2.58;;;;;;;;;;5008559;28;19905;-86
2023/09/07 12:04:57;;;;;;;4.68;1.52;;;;;;;;;;5003373;28;20407;-80
2023/09/07 12:07:23;;;;;;;4.22;1.65;;;;;;;;;;5009084;28;20084;-81
2023/09/07 12:09:49;;;;;;;10.43;2.13;;;;;;;;;;5001204;28;20032;-79
2023/09/07 12:12:15;;;;;;;4.38;1.98;;;;;;;;;;5023997;28;20033;-80
2023/09/07 12:14:41;;;;;;;10.55;2.53;;;;;;;;;;5003865;28;20100;-85
2023/09/07 12:17:07;;;;;;;;;;;37.30;30.40;;;;;;5006425;28;20054;-78
2023/09/07 12:19:33;;;;;;;3.92;1.88;;;;;;;;;;5009571;28;19917;-78
2023/09/07 12:21:59;;;;;;;5.30;2.35;;;;;;;;;;5004541;28;20388;-78
2023/09/07 12:24:25;;;;;;;2.17;1.63;;;;;;;;;;5007274;28;20043;-78
2023/09/07 12:26:51;;;;;;;2.67;1.95;;;;;;;;;;5005729;28;20033;-78
2023/09/07 12:29:17;;;;;;;4.93;2.83;;;;;;;;;;4999677;28;20457;-78
2023/09/07 12:31:43;;;;;;;5.60;2.17;;;;;;;;;;5006674;28;20026;-85
2023/09/07 12:34:09;;;;;;;3.65;1.98;;;;;;;;;;5009942;28;20057;-85
2023/09/07 12:36:35;;;;;;;3.78;2.20;;;;;;;;;;5011057;28;20096;-82
2023/09/07 12:39:01;;;;;;;2.58;1.65;;;;;;;;;;5010677;28;20038;-81
2023/09/07 12:41:30;;;;;;;3.55;1.88;;;36.00;31.10;;;;;;5006300;28;20038;-81
2023/09/07 12:43:56;;;;;;;3.65;2.10;;;;;;;;;;5007463;28;20036;-80
2023/09/07 12:46:22;;;;;;;4.07;1.63;;;;;;;;;;5011956;28;20048;-79
2023/09/07 12:48:48;;;;;;;2.15;1.58;;;;;;;;;;5003721;28;20030;-79
2023/09/07 12:51:16;;;;;;;3.90;2.13;;;;;;;;;;5006908;28;20091;-79
2023/09/07 12:53:42;;;;;;;2.72;1.85;;;;;;;;;;5005699;28;20029;-79
2023/09/07 12:56:08;;;;;;;2.47;1.73;;;;;;;;;;5006247;28;20087;-79
2023/09/07 12:58:34;;;;;;;3.92;2.10;;;;;;;;;;5004441;28;20032;-79
2023/09/07 13:01:00;;;;;;;3.75;2.13;;;;;;;;;;5003981;28;20032;-78
2023/09/07 13:03:26;;;;;;;5.53;2.38;;;;;;;;;;5004831;28;20391;-79
2023/09/07 13:05:52;;;;;;;3.65;2.15;;;;;;;;;;5004651;28;20030;-79
2023/09/07 13:08:18;;;;;;;6.45;2.15;;;;;;;;;;4995579;28;20091;-79
2023/09/07 13:10:44;;;;;;;2.70;1.85;;;;;;;;;;5003922;28;20034;-85
2023/09/07 13:13:10;;;;;;;4.93;1.77;;;;;;;;;;5010870;28;20473;-85
2023/09/07 13:15:36;;;;;;;7.00;3.10;;;;;;;;;;5014805;28;20041;-85
2023/09/07 13:18:02;;;;;;;4.43;1.83;;;;;;;;;;5001610;28;20041;-85
2023/09/07 13:20:28;;;;;;;4.13;2.20;;;;;;;;;;5002824;28;20044;-81
2023/09/07 13:22:54;;;;;;;5.47;2.35;;;;;;;;;;5011852;28;20438;-82
2023/09/07 13:25:20;;;;;;;4.57;2.22;;;;;;;;;;5004364;28;20076;-81
2023/09/07 13:27:46;;;;;;;3.05;2.38;;;;;;;;;;5000861;28;20265;-82
2023/09/07 13:30:12;;;;;;;4.50;2.47;;;;;;;;;;5008590;28;20629;-82
2023/09/07 13:32:38;;;;;;;3.42;1.88;;;;;;;;;;5005965;28;20018;-81
2023/09/07 13:35:05;;;;;;;3.75;2.13;;;34.30;33.60;;;;;;5003217;28;20049;-81
2023/09/07 13:37:31;;;;;;;5.10;2.40;;;;;;;;;;4999986;28;20029;-81
2023/09/07 13:39:57;;;;;;;2.97;2.05;;;;;;;;;;5005698;28;20044;-81
2023/09/07 13:42:23;;;;;;;3.88;2.08;;;;;;;;;;5006465;28;20014;-81
2023/09/07 13:44:49;;;;;;;4.63;1.85;;;34.10;45.30;;;;;;5008996;28;20041;-81
2023/09/07 13:47:15;;;;;;;8.27;3.15;;;;;;;;;;5009223;28;20057;-81
2023/09/07 13:49:41;;;;;;;4.90;2.70;;;33.80;36.40;;;;;;5005120;28;20045;-81
2023/09/07 13:52:07;;;;;;;3.50;2.03;;;;;;;;;;5005897;28;20141;-81
2023/09/07 13:54:32;;;;;;;5.97;2.50;;;33.30;38.80;;;;;;5005282;28;20080;-81
2023/09/07 13:56:58;;;;;;;3.67;2.43;;;;;;;;;;5003594;28;20083;-81
2023/09/07 13:59:28;;;;;;;5.60;1.88;;;;;;;;;;4996131;28;20522;-82
2023/09/07 14:01:54;;;;;;;3.50;2.20;;;;;;;;;;5003935;28;20120;-82